Time;durP1;ratioP1;P1;durP2;ratioP2;P2;SDS_P1;SDS_P2;PMS_P1;PMS_P2;Temp;Humidity;BMP_temperature;BMP_pressure;BME280_temperature;BME280_humidity;BME280_pressure;Samples;Min_cycle;Max_cycle;Signal;HPM_P1;HPM_P2
2022/12/29 00:02:04;;;;;;;2.25;1.23;;;;;;;10.43;100.00;100051.22;5303540;28;20017;-85
2022/12/29 00:04:35;;;;;;;1.38;1.08;;;;;;;10.49;100.00;100050.59;5305215;28;20068;-85
2022/12/29 00:07:07;;;;;;;1.77;0.82;;;;;;;10.50;100.00;100050.44;5303727;28;20102;-85
2022/12/29 00:09:38;;;;;;;1.17;0.70;;;;;;;10.41;100.00;100046.06;5305276;28;20021;-85
2022/12/29 00:12:10;;;;;;;1.02;0.70;;;;;;;10.39;100.00;100048.88;5303948;28;20036;-85
2022/12/29 00:17:31;;;;;;;2.28;0.60;;;;;;;10.19;100.00;100044.78;5301736;28;20048;-85
2022/12/29 00:37:03;;;;;;;1.08;0.70;;;;;;;9.69;100.00;100019.69;5301706;28;20480;-86
2022/12/29 00:45:14;;;;;;;1.90;1.15;;;;;;;9.63;100.00;99994.53;5305941;28;20123;-86
2022/12/29 00:47:46;;;;;;;1.50;1.40;;;;;;;9.67;100.00;100007.53;5283680;28;20467;-86
2022/12/29 00:50:17;;;;;;;1.88;1.70;;;;;;;9.69;100.00;99998.38;5311941;28;20059;-86
2022/12/29 00:52:48;;;;;;;2.25;1.77;;;;;;;9.70;100.00;99994.72;5303544;28;20063;-86
2022/12/29 00:55:20;;;;;;;2.75;1.88;;;;;;;9.75;100.00;99983.63;5306501;28;20390;-85
2022/12/29 00:57:51;;;;;;;2.42;2.05;;;;;;;9.73;100.00;99990.91;5305960;28;20029;-86
2022/12/29 01:00:22;;;;;;;3.38;2.60;;;;;;;9.78;100.00;99993.94;5303400;28;20444;-86
2022/12/29 01:02:53;;;;;;;3.13;2.60;;;;;;;9.81;100.00;99988.31;5304733;28;20469;-86
2022/12/29 01:05:25;;;;;;;4.00;2.75;;;;;;;9.83;100.00;99965.00;5310101;28;20032;-86
2022/12/29 01:07:56;;;;;;;3.55;2.80;;;;;;;9.89;100.00;99966.19;5314075;28;20020;-86
2022/12/29 01:10:27;;;;;;;2.60;2.40;;;;;;;9.92;100.00;99958.75;5295996;28;20036;-86
2022/12/29 01:12:59;;;;;;;3.70;2.42;;;;;;;9.91;100.00;99970.38;5318605;28;20048;-86
2022/12/29 01:15:30;;;;;;;5.18;2.58;;;;;;;9.94;100.00;99964.72;5311411;28;20052;-85
2022/12/29 01:18:01;;;;;;;4.60;2.30;;;;;;;10.01;100.00;99964.91;5308503;28;20033;-85
2022/12/29 01:20:33;;;;;;;2.30;1.90;;;;;;;10.05;100.00;99966.28;5305459;28;20025;-85
2022/12/29 01:23:04;;;;;;;1.90;1.55;;;;;;;10.08;100.00;99962.44;5312503;28;20086;-86
2022/12/29 01:25:35;;;;;;;1.63;1.50;;;;;;;10.11;100.00;99967.47;5305343;28;20040;-85
2022/12/29 01:28:08;;;;;;;3.80;1.55;;;;;;;10.12;100.00;99955.81;5307659;28;20025;-86
2022/12/29 01:30:39;;;;;;;2.10;1.55;;;;;;;10.09;100.00;99951.63;5309888;28;20029;-85
2022/12/29 01:33:10;;;;;;;1.48;1.08;;;;;;;10.15;100.00;99963.47;5306785;28;20573;-85
2022/12/29 01:35:42;;;;;;;2.50;1.17;;;;;;;10.16;100.00;99951.81;5308158;28;20040;-86
2022/12/29 01:38:13;;;;;;;3.03;1.20;;;;;;;10.23;100.00;99955.50;5288707;28;20112;-85
2022/12/29 01:40:47;;;;;;;1.30;1.00;;;;;;;10.35;100.00;99940.91;5308144;28;20396;-87
2022/12/29 01:43:19;;;;;;;1.73;0.95;;;;;;;10.40;100.00;99965.25;5289016;28;20020;-86
2022/12/29 01:45:53;;;;;;;1.92;0.93;;;;;;;10.51;100.00;99940.09;5311532;28;20075;-86
2022/12/29 01:48:24;;;;;;;1.67;1.23;;;;;;;10.62;100.00;99954.13;5299850;28;20071;-86
2022/12/29 01:50:55;;;;;;;1.27;0.90;;;;;;;10.69;100.00;99945.28;5322867;28;20029;-85
2022/12/29 01:53:32;;;;;;;3.47;0.93;;;;;;;10.74;100.00;99966.16;5316579;28;20142;-85
2022/12/29 01:56:09;;;;;;;1.70;0.85;;;;;;;10.78;100.00;99946.13;5312357;28;20478;-86
2022/12/29 01:58:46;;;;;;;3.95;1.08;;;;;;;10.76;100.00;99942.81;5309797;28;20043;-86
2022/12/29 02:01:19;;;;;;;1.45;0.70;;;;;;;10.76;100.00;99943.66;5306984;28;20056;-86
2022/12/29 02:03:51;;;;;;;1.70;0.82;;;;;;;10.84;100.00;99955.34;5302016;28;20123;-86
2022/12/29 02:07:08;;;;;;;2.00;1.10;;;;;;;10.84;100.00;99939.31;5306069;28;20032;-85
2022/12/29 02:09:41;;;;;;;2.25;0.82;;;;;;;10.84;100.00;99942.00;5295427;28;20033;-87
2022/12/29 02:12:13;;;;;;;3.65;0.80;;;;;;;10.90;100.00;99939.47;5297212;28;20033;-86
2022/12/29 02:14:47;;;;;;;3.78;0.60;;;;;;;10.97;100.00;99936.97;5300858;28;20203;-86
2022/12/29 02:17:27;;;;;;;1.73;0.70;;;;;;;10.97;100.00;99936.97;5313052;28;20032;-86
2022/12/29 02:20:31;;;;;;;1.75;0.80;;;;;;;10.99;100.00;99934.97;5307430;28;20035;-85
2022/12/29 02:23:25;;;;;;;1.65;0.73;;;;;;;11.02;100.00;99960.50;5304075;28;20027;-86
2022/12/29 02:26:28;;;;;;;2.83;0.95;;;;;;;11.09;100.00;99934.81;5319019;28;20025;-86
2022/12/29 02:29:09;;;;;;;4.45;1.00;;;;;;;11.05;100.00;99947.66;5324456;28;20084;-86
2022/12/29 02:31:57;;;;;;;2.05;0.75;;;;;;;10.99;100.00;99921.63;5319385;28;20024;-86
2022/12/29 02:34:52;;;;;;;3.55;1.00;;;;;;;11.00;100.00;99933.97;5320840;28;20054;-86
2022/12/29 02:37:59;;;;;;;2.80;0.90;;;;;;;10.99;100.00;99945.63;5328923;27;20044;-86
2022/12/29 02:40:37;;;;;;;2.50;0.90;;;;;;;10.99;100.00;99932.31;5317053;28;20079;-86
2022/12/29 02:43:18;;;;;;;3.67;1.73;;;;;;;10.96;100.00;99920.13;5325910;28;20032;-86
2022/12/29 02:45:58;;;;;;;4.88;0.80;;;;;;;10.87;100.00;99912.28;5329449;28;20084;-86
2022/12/29 02:48:43;;;;;;;3.92;1.00;;;;;;;10.78;100.00;99932.78;5333025;27;20063;-86
2022/12/29 02:51:24;;;;;;;2.22;0.85;;;;;;;10.82;100.00;99923.47;5331366;27;20048;-85
2022/12/29 02:56:46;;;;;;;3.03;0.82;;;;;;;10.80;100.00;99922.81;5331052;28;20056;-85
2022/12/29 02:59:17;;;;;;;2.90;0.82;;;;;;;10.81;100.00;99896.97;5328771;28;20044;-85
2022/12/29 03:02:20;;;;;;;2.90;0.80;;;;;;;10.77;100.00;99902.63;5329761;28;20083;-85
2022/12/29 03:05:16;;;;;;;1.73;0.82;;;;;;;10.77;100.00;99899.13;5329025;28;20077;-85
2022/12/29 03:08:10;;;;;;;2.78;1.00;;;;;;;10.71;100.00;99910.47;5330771;28;20059;-86
2022/12/29 03:12:07;;;;;;;2.72;0.70;;;;;;;10.67;100.00;99909.97;5327652;28;20020;-85
2022/12/29 03:17:48;;;;;;;2.70;0.90;;;;;;;10.70;100.00;99906.97;5305485;28;20028;-86
2022/12/29 03:20:31;;;;;;;1.83;0.75;;;;;;;10.67;100.00;99904.63;5307766;27;20035;-86
2022/12/29 03:23:03;;;;;;;2.42;0.88;;;;;;;10.63;100.00;99897.97;5302099;28;20090;-85
2022/12/29 03:25:43;;;;;;;3.00;0.85;;;;;;;10.71;100.00;99905.13;5302977;28;20031;-87
2022/12/29 03:28:23;;;;;;;1.77;0.60;;;;;;;10.67;100.00;99901.97;5290464;28;20032;-85
2022/12/29 03:30:57;;;;;;;1.77;0.85;;;;;;;10.65;100.00;99895.13;5296961;28;20021;-86
2022/12/29 03:33:30;;;;;;;1.20;0.80;;;;;;;10.58;100.00;99909.13;5307330;28;20107;-86
2022/12/29 03:36:08;;;;;;;3.47;0.80;;;;;;;10.60;100.00;99888.44;5314473;28;20089;-86
2022/12/29 03:39:01;;;;;;;2.22;0.90;;;;;;;10.52;100.00;99895.63;5308480;28;20063;-86
2022/12/29 03:41:34;;;;;;;2.20;0.82;;;;;;;10.37;100.00;99906.09;5308762;28;20475;-86
2022/12/29 03:44:06;;;;;;;1.73;0.65;;;;;;;10.22;100.00;99909.38;5303108;28;20496;-86
2022/12/29 03:46:38;;;;;;;3.38;0.80;;;;;;;10.16;100.00;99898.53;5306486;28;20020;-85
2022/12/29 03:49:09;;;;;;;2.05;0.77;;;;;;;10.17;100.00;99886.88;5302321;28;20082;-85
2022/12/29 03:51:40;;;;;;;3.63;1.02;;;;;;;10.14;100.00;99903.19;5289644;28;20120;-86
2022/12/29 03:54:12;;;;;;;4.40;0.80;;;;;;;10.16;100.00;99907.34;5305704;28;20042;-86
2022/12/29 03:56:43;;;;;;;4.05;0.70;;;;;;;10.16;100.00;99912.69;5285643;28;20035;-86
2022/12/29 03:59:14;;;;;;;2.65;1.00;;;;;;;10.18;100.00;99915.19;5307489;28;20386;-85
2022/12/29 04:01:46;;;;;;;2.25;0.93;;;;;;;10.18;100.00;99915.19;5305515;28;20035;-85
2022/12/29 04:04:17;;;;;;;3.42;0.85;;;;;;;10.12;100.00;99908.69;5304267;28;20430;-85
2022/12/29 04:06:48;;;;;;;4.00;1.27;;;;;;;10.09;100.00;99909.00;5305902;28;20036;-85
2022/12/29 04:09:20;;;;;;;6.03;0.93;;;;;;;9.94;100.00;99906.13;5301644;28;20035;-86
2022/12/29 04:11:51;;;;;;;3.28;0.93;;;;;;;9.76;100.00;99903.53;5309751;28;20024;-86
2022/12/29 04:14:22;;;;;;;4.47;1.10;;;;;;;9.57;100.00;99922.44;5289497;28;20099;-85
2022/12/29 04:16:54;;;;;;;3.55;1.00;;;;;;;9.36;100.00;99939.63;5306779;28;20055;-86
2022/12/29 04:19:45;;;;;;;4.65;1.38;;;;;;;9.33;100.00;99941.78;5378122;27;20438;-86
2022/12/29 04:22:16;;;;;;;2.83;1.00;;;;;;;9.28;100.00;99944.88;5358730;27;20464;-86
2022/12/29 04:24:48;;;;;;;4.35;0.95;;;;;;;9.22;100.00;99961.47;5383784;27;20355;-86
2022/12/29 04:27:19;;;;;;;9.63;1.20;;;;;;;9.17;100.00;99942.47;5382628;27;20019;-85
2022/12/29 04:29:50;;;;;;;5.68;1.23;;;;;;;9.13;100.00;99939.28;5384034;27;20023;-86
2022/12/29 04:32:22;;;;;;;5.80;1.33;;;;;;;9.13;100.00;99938.44;5379701;27;20120;-85
2022/12/29 04:34:53;;;;;;;4.72;1.20;;;;;;;9.07;100.00;99931.94;5380876;27;20110;-86
2022/12/29 04:37:24;;;;;;;17.17;2.67;;;;;;;9.03;100.00;99947.38;5363449;27;20034;-86
2022/12/29 04:39:56;;;;;;;4.80;1.15;;;;;;;9.00;100.00;99944.19;5379243;27;20072;-86
2022/12/29 04:42:27;;;;;;;10.60;1.65;;;;;;;9.02;100.00;99942.19;5376691;27;20051;-86
2022/12/29 04:44:58;;;;;;;8.82;1.40;;;;;;;8.92;100.00;99952.91;5378868;27;20058;-86
2022/12/29 04:47:30;;;;;;;8.20;1.08;;;;;;;8.96;100.00;99953.44;5375640;27;20030;-86
2022/12/29 04:50:01;;;;;;;5.45;1.77;;;;;;;8.84;100.00;99964.31;5379324;27;20057;-85
2022/12/29 04:52:33;;;;;;;6.63;1.20;;;;;;;8.77;100.00;99959.78;5370880;27;20028;-86
2022/12/29 04:55:05;;;;;;;7.00;1.23;;;;;;;8.78;100.00;99975.56;5379194;27;20034;-85
2022/12/29 04:57:37;;;;;;;7.50;1.33;;;;;;;8.83;100.00;99970.63;5356988;27;20035;-85
2022/12/29 05:00:09;;;;;;;5.80;1.33;;;;;;;8.91;100.00;99987.66;5376920;27;20030;-86
2022/12/29 05:02:41;;;;;;;4.45;1.15;;;;;;;8.86;100.00;99964.19;5376966;27;20486;-85
2022/12/29 05:05:12;;;;;;;4.80;1.05;;;;;;;8.88;100.00;99965.69;5360477;27;20023;-85
2022/12/29 05:07:44;;;;;;;6.03;1.20;;;;;;;8.87;100.00;99992.44;5377174;27;20053;-85
2022/12/29 05:10:15;;;;;;;8.55;1.98;;;;;;;8.82;100.00;99976.94;5360357;27;20137;-86
2022/12/29 05:12:46;;;;;;;4.70;1.30;;;;;;;8.91;100.00;99985.00;5355333;27;20099;-86
2022/12/29 05:15:18;;;;;;;6.72;1.35;;;;;;;8.98;100.00;99989.56;5375193;27;20483;-86
2022/12/29 05:17:49;;;;;;;6.30;1.13;;;;;;;8.99;100.00;100001.84;5364512;27;20472;-85
2022/12/29 05:20:21;;;;;;;9.00;1.77;;;;;;;9.12;100.00;100000.66;5332203;27;20038;-86
2022/12/29 05:22:52;;;;;;;5.93;1.50;;;;;;;9.20;100.00;100014.84;5350219;27;20042;-86
2022/12/29 05:25:23;;;;;;;7.50;1.85;;;;;;;9.28;100.00;100030.03;5338524;27;20039;-86
2022/12/29 05:27:54;;;;;;;4.53;1.40;;;;;;;9.37;100.00;100005.16;5368456;27;20018;-86
2022/12/29 05:30:26;;;;;;;9.48;1.80;;;;;;;9.40;100.00;100009.34;5359904;27;20031;-87
2022/12/29 05:32:57;;;;;;;6.80;1.40;;;;;;;9.44;100.00;100000.88;5347314;27;20027;-86
2022/12/29 05:35:28;;;;;;;5.35;1.00;;;;;;;9.44;100.00;100006.19;5336043;27;20372;-86
2022/12/29 05:38:00;;;;;;;6.13;1.40;;;;;;;9.48;100.00;100011.22;5322159;27;20154;-86
2022/12/29 05:40:31;;;;;;;3.45;1.10;;;;;;;9.50;100.00;100010.06;5337195;27;20024;-86
2022/12/29 05:43:02;;;;;;;5.22;1.10;;;;;;;9.57;100.00;100007.63;5336946;27;20091;-87
2022/12/29 05:45:35;;;;;;;5.05;1.23;;;;;;;9.58;100.00;100025.28;5319601;27;20031;-86
2022/12/29 05:48:07;;;;;;;10.73;1.80;;;;;;;9.65;100.00;100018.34;5319466;27;22332;-87
2022/12/29 05:50:38;;;;;;;5.38;1.50;;;;;;;9.76;100.00;100028.72;5314995;27;20115;-86
2022/12/29 05:53:09;;;;;;;2.80;0.93;;;;;;;9.82;100.00;100030.75;5340666;27;20016;-86
2022/12/29 05:55:40;;;;;;;4.20;1.27;;;;;;;9.80;100.00;100021.25;5319702;27;20028;-86
2022/12/29 05:58:12;;;;;;;5.55;1.40;;;;;;;9.82;100.00;100025.44;5339584;27;20053;-86
2022/12/29 06:00:43;;;;;;;5.30;1.00;;;;;;;9.97;100.00;100038.16;5337704;27;20019;-86
2022/12/29 06:03:15;;;;;;;4.40;0.90;;;;;;;10.02;100.00;100030.53;5340722;27;20028;-86
2022/12/29 06:05:46;;;;;;;5.68;1.30;;;;;;;10.07;100.00;100030.06;5342506;27;20094;-86
2022/12/29 06:08:17;;;;;;;5.97;1.00;;;;;;;10.09;100.00;100039.56;5341248;27;20015;-86
2022/12/29 06:10:49;;;;;;;4.32;0.90;;;;;;;10.10;100.00;100035.91;5337137;27;20066;-86
2022/12/29 06:13:20;;;;;;;6.72;1.33;;;;;;;10.12;100.00;100035.75;5342047;27;20106;-86
2022/12/29 06:15:52;;;;;;;4.72;1.17;;;;;;;10.12;100.00;100036.59;5313087;27;20028;-86
2022/12/29 06:18:23;;;;;;;5.63;1.23;;;;;;;10.17;100.00;100028.13;5343977;27;30711;-86
2022/12/29 06:21:02;;;;;;;5.95;1.50;;;;;;;10.12;100.00;100033.91;5342614;27;20034;-85
2022/12/29 06:23:33;;;;;;;6.03;1.38;;;;;;;10.13;100.00;100029.41;5315581;27;20059;-86
2022/12/29 06:26:05;;;;;;;5.28;1.63;;;;;;;10.15;100.00;100040.75;5340057;27;20498;-86
2022/12/29 06:28:36;;;;;;;6.68;1.67;;;;;;;10.11;100.00;100021.56;5342328;27;20092;-86
2022/12/29 06:31:11;;;;;;;2.60;0.82;;;;;;;10.01;100.00;100032.38;5339558;27;20034;-86
2022/12/29 06:33:42;;;;;;;4.35;1.05;;;;;;;9.92;100.00;100024.47;5336361;27;20032;-86
2022/12/29 06:36:13;;;;;;;6.13;1.10;;;;;;;9.87;100.00;100022.31;5332186;27;20113;-86
2022/12/29 06:38:45;;;;;;;3.63;0.88;;;;;;;9.84;100.00;99996.81;5339332;27;20051;-85
2022/12/29 06:41:16;;;;;;;9.80;1.58;;;;;;;9.85;100.00;100016.28;5328693;27;20119;-86
2022/12/29 06:43:48;;;;;;;5.03;1.17;;;;;;;9.88;100.00;100033.78;5338291;27;20032;-85
2022/12/29 06:46:19;;;;;;;5.60;1.33;;;;;;;9.91;100.00;100015.66;5337958;27;20149;-86
2022/12/29 06:48:50;;;;;;;7.05;1.17;;;;;;;9.97;100.00;100022.19;5336959;27;20027;-86
2022/12/29 06:51:21;;;;;;;6.95;1.70;;;;;;;9.93;100.00;100026.16;5335477;27;20036;-86
2022/12/29 06:53:53;;;;;;;3.92;0.98;;;;;;;9.97;100.00;100020.34;5311846;27;20112;-86
2022/12/29 06:56:24;;;;;;;4.60;0.85;;;;;;;9.87;100.00;100024.13;5361689;27;20024;-85
2022/12/29 06:58:56;;;;;;;5.85;1.55;;;;;;;9.92;100.00;100021.81;5365911;27;20046;-85
2022/12/29 07:01:27;;;;;;;7.18;1.52;;;;;;;9.94;100.00;100023.34;5365493;27;20024;-85
2022/12/29 07:03:58;;;;;;;8.20;1.60;;;;;;;9.95;100.00;100042.81;5349005;27;20628;-85
2022/12/29 07:06:30;;;;;;;9.13;1.80;;;;;;;10.09;100.00;100020.09;5341716;27;20028;-85
2022/12/29 07:09:01;;;;;;;7.47;1.20;;;;;;;10.09;100.00;100042.22;5341751;27;20027;-85
2022/12/29 07:11:33;;;;;;;8.70;2.22;;;;;;;10.15;100.00;100038.94;5345096;27;20016;-85
2022/12/29 07:14:04;;;;;;;8.85;1.65;;;;;;;10.14;100.00;100047.91;5360160;27;20419;-86
2022/12/29 07:16:35;;;;;;;6.18;1.25;;;;;;;10.13;100.00;100051.59;5345760;27;20028;-85
2022/12/29 07:19:07;;;;;;;8.05;1.55;;;;;;;10.15;100.00;100056.72;5339483;27;20089;-85
2022/12/29 07:21:38;;;;;;;13.05;2.45;;;;;;;10.13;100.00;100053.41;5344002;27;20036;-86
2022/12/29 07:24:09;;;;;;;10.00;1.55;;;;;;;10.11;100.00;100063.38;5334142;27;20476;-85
2022/12/29 07:26:41;;;;;;;7.93;2.10;;;;;;;10.15;100.00;100075.38;5340623;27;20023;-86
2022/12/29 07:29:12;;;;;;;9.77;2.28;;;;;;;10.10;100.00;100072.34;5325657;27;20058;-84
2022/12/29 07:31:44;;;;;;;7.78;1.88;;;;;;;10.13;100.00;100093.38;5343093;27;20036;-84
2022/12/29 07:34:15;;;;;;;7.72;2.10;;;;;;;10.09;100.00;100082.19;5321453;27;20102;-84
2022/12/29 07:36:46;;;;;;;7.63;1.95;;;;;;;10.10;100.00;100093.69;5338177;27;20045;-84
2022/12/29 07:39:18;;;;;;;6.43;1.40;;;;;;;10.07;100.00;100070.03;5343544;27;20084;-85
2022/12/29 07:41:49;;;;;;;4.80;1.65;;;;;;;10.06;100.00;100084.34;5345361;27;20051;-86
2022/12/29 07:44:20;;;;;;;7.45;2.00;;;;;;;10.00;100.00;100091.13;5344692;27;20076;-86
2022/12/29 07:46:51;;;;;;;7.47;1.90;;;;;;;10.07;100.00;100094.84;5345226;27;20019;-85
2022/12/29 07:49:23;;;;;;;8.30;1.88;;;;;;;10.06;100.00;100087.81;5336757;27;20384;-85
2022/12/29 07:51:54;;;;;;;8.98;1.73;;;;;;;10.06;100.00;100082.50;5314789;27;20193;-85
2022/12/29 07:54:25;;;;;;;10.20;1.88;;;;;;;10.07;100.00;100078.03;5315178;27;20032;-85
2022/12/29 07:56:59;;;;;;;9.43;1.58;;;;;;;10.09;100.00;100092.03;5322316;27;20162;-85
2022/12/29 07:59:31;;;;;;;10.68;2.58;;;;;;;10.02;100.00;100078.50;5318692;27;20036;-86
2022/12/29 08:02:02;;;;;;;5.93;1.50;;;;;;;10.02;100.00;100083.81;5340292;27;20027;-86
2022/12/29 08:04:34;;;;;;;10.25;2.22;;;;;;;9.98;100.00;100085.97;5319622;27;20059;-85
2022/12/29 08:07:05;;;;;;;7.22;1.90;;;;;;;10.01;100.00;100093.66;5334232;27;20030;-86
2022/12/29 08:09:36;;;;;;;6.35;1.63;;;;;;;10.06;100.00;100095.00;5333983;27;20054;-86
2022/12/29 08:12:09;;;;;;;6.72;1.83;;;;;;;10.09;100.00;100103.50;5321957;27;20030;-86
2022/12/29 08:14:41;;;;;;;9.02;1.83;;;;;;;10.13;100.00;100094.22;5329597;27;20035;-85
2022/12/29 08:17:12;;;;;;;8.52;2.40;;;;;;;10.15;100.00;100094.03;5338026;27;20560;-86
2022/12/29 08:19:43;;;;;;;9.13;2.15;;;;;;;10.17;100.00;100108.06;5344753;27;20035;-86
2022/12/29 08:22:15;;;;;;;10.35;2.83;;;;;;;10.13;100.00;100099.56;5354052;27;20019;-86
2022/12/29 08:24:46;;;;;;;11.52;2.30;;;;;;;10.18;100.00;100091.06;5355573;27;20028;-86
2022/12/29 08:27:18;;;;;;;9.68;2.05;;;;;;;10.14;100.00;100105.72;5343289;27;20100;-85
2022/12/29 08:29:49;;;;;;;8.80;1.75;;;;;;;10.20;100.00;100110.41;5359631;27;20049;-85
2022/12/29 08:32:21;;;;;;;6.88;1.45;;;;;;;10.17;100.00;100108.91;5338445;27;20016;-85
2022/12/29 08:34:52;;;;;;;10.32;2.20;;;;;;;10.26;100.00;100106.28;5352314;27;20102;-85
2022/12/29 08:37:23;;;;;;;12.32;2.17;;;;;;;10.31;100.00;100125.28;5354840;27;20019;-85
2022/12/29 08:39:55;;;;;;;12.02;2.10;;;;;;;10.30;100.00;100107.63;5360786;27;20050;-85
2022/12/29 08:42:30;;;;;;;9.70;2.10;;;;;;;10.37;100.00;100101.53;5357228;27;20098;-85
2022/12/29 08:45:02;;;;;;;10.35;2.05;;;;;;;10.40;100.00;100090.56;5340836;27;20102;-86
2022/12/29 08:47:34;;;;;;;11.85;2.50;;;;;;;10.50;100.00;100100.25;5359323;27;20585;-86
2022/12/29 08:50:06;;;;;;;8.07;1.90;;;;;;;10.54;100.00;100110.44;5354685;27;20027;-85
2022/12/29 08:52:37;;;;;;;6.60;1.67;;;;;;;10.55;100.00;100113.94;5357052;27;20106;-86
2022/12/29 08:55:09;;;;;;;9.88;1.73;;;;;;;10.51;100.00;100124.09;5355365;27;20035;-86
2022/12/29 08:57:40;;;;;;;8.95;2.50;;;;;;;10.51;100.00;100102.75;5361121;27;20027;-85
2022/12/29 09:00:12;;;;;;;13.07;2.13;;;;;;;10.53;100.00;100097.28;5359412;27;20035;-84
2022/12/29 09:02:43;;;;;;;9.80;2.00;;;;;;;10.52;100.00;100131.09;5372528;27;20410;-85
2022/12/29 09:05:15;;;;;;;7.93;1.70;;;;;;;10.53;100.00;100118.59;5363762;27;20023;-86
2022/12/29 09:07:47;;;;;;;10.88;2.28;;;;;;;10.50;100.00;100114.44;5360605;27;20034;-85
2022/12/29 09:10:18;;;;;;;15.60;2.38;;;;;;;10.54;100.00;100107.78;5362763;27;20358;-86
2022/12/29 09:12:49;;;;;;;8.65;2.22;;;;;;;10.46;100.00;100117.56;5364488;27;20498;-87
2022/12/29 09:15:20;;;;;;;8.05;1.83;;;;;;;10.29;100.00;100129.94;5367070;27;20027;-84
2022/12/29 09:17:52;;;;;;;10.60;2.08;;;;;;;10.20;100.00;100142.38;5357541;27;20085;-84
2022/12/29 09:20:23;;;;;;;10.40;2.28;;;;;;;10.13;100.00;100130.69;5340499;27;31109;-84
2022/12/29 09:22:54;;;;;;;10.10;2.40;;;;;;;9.99;100.00;100127.59;5340234;27;20449;-84
2022/12/29 09:25:26;;;;;;;9.40;2.67;;;;;;;9.84;100.00;100158.47;5342897;27;20078;-84
2022/12/29 09:27:57;;;;;;;7.95;1.73;;;;;;;9.75;100.00;100157.56;5337607;27;20046;-84
2022/12/29 09:30:28;;;;;;;7.85;2.08;;;;;;;9.66;100.00;100137.19;5344965;27;20023;-84
2022/12/29 09:33:00;;;;;;;6.63;1.70;;;;;;;9.56;100.00;100165.72;5350320;27;20047;-84
2022/12/29 09:35:31;;;;;;;7.95;1.85;;;;;;;9.40;100.00;100151.25;5353985;27;20035;-84
2022/12/29 09:38:02;;;;;;;10.23;1.85;;;;;;;9.52;100.00;100157.19;5346719;27;20475;-84
2022/12/29 09:40:34;;;;;;;8.93;1.50;;;;;;;9.60;100.00;100159.91;5331188;27;20147;-84
2022/12/29 09:43:30;;;;;;;8.80;2.25;;;;;;;9.41;100.00;100171.56;5349371;27;20360;-84
2022/12/29 09:46:12;;;;;;;10.40;2.03;;;;;;;9.29;100.00;100183.38;5347281;27;20046;-85
2022/12/29 09:48:50;;;;;;;10.65;2.22;;;;;;;9.37;100.00;100183.47;5335728;27;20085;-85
2022/12/29 09:51:24;;;;;;;8.80;2.00;;;;;;;9.57;100.00;100184.19;5330130;27;20143;-84
2022/12/29 09:54:00;;;;;;;8.05;2.20;;;;;;;9.58;100.00;100188.50;5341023;27;20020;-86
2022/12/29 09:56:31;;;;;;;9.88;1.67;;;;;;;9.36;100.00;100187.16;5346774;27;20155;-82
2022/12/29 09:59:11;;;;;;;10.73;2.90;;;;;;;9.17;100.00;100225.34;5348593;27;20080;-83
2022/12/29 10:02:27;;;;;;;10.85;2.38;;;;;;;9.08;100.00;100199.63;5338434;27;20035;-83
2022/12/29 10:04:58;;;;;;;8.23;1.95;;;;;;;9.09;100.00;100211.94;5219424;28;20563;-83
2022/12/29 10:07:45;;;;;;;9.73;2.55;;;;;;;9.24;100.00;100220.28;5220240;28;20027;-82
2022/12/29 10:10:45;;;;;;;7.38;1.73;;;;;;;9.19;100.00;100233.19;5292181;27;20039;-82
2022/12/29 10:13:43;;;;;;;8.27;2.10;;;;;;;9.02;100.00;100254.25;5312465;28;20020;-81
2022/12/29 10:16:20;;;;;;;10.07;2.00;;;;;;;8.99;100.00;100259.88;5327658;28;20026;-83
2022/12/29 10:19:16;;;;;;;11.55;2.78;;;;;;;9.06;100.00;100286.72;5328539;27;20044;-82
2022/12/29 10:21:54;;;;;;;6.37;1.83;;;;;;;8.95;100.00;100269.13;5332344;27;20443;-82
2022/12/29 10:24:29;;;;;;;12.02;2.30;;;;;;;8.85;100.00;100273.66;5327197;28;20035;-82
2022/12/29 10:27:01;;;;;;;9.23;2.03;;;;;;;8.87;100.00;100269.00;5327702;27;20024;-83
2022/12/29 10:29:39;;;;;;;9.57;2.63;;;;;;;8.87;100.00;100300.94;5337610;27;20023;-82
2022/12/29 10:32:31;;;;;;;9.23;2.53;;;;;;;8.94;100.00;100275.44;5343924;27;20574;-83
2022/12/29 10:35:20;;;;;;;9.63;1.92;;;;;;;8.96;100.00;100283.25;5315811;28;20226;-83
2022/12/29 10:38:15;;;;;;;10.65;2.40;;;;;;;8.98;100.00;100294.63;5339572;27;20024;-83
2022/12/29 10:40:53;;;;;;;7.05;2.10;;;;;;;8.83;100.00;100294.22;5340565;27;20036;-84
2022/12/29 10:43:30;;;;;;;9.63;1.88;;;;;;;8.62;100.00;100303.22;5330146;27;20050;-83
2022/12/29 10:46:12;;;;;;;10.80;2.03;;;;;;;8.65;100.00;100304.78;5338021;27;20019;-84
2022/12/29 10:48:46;;;;;;;14.52;2.65;;;;;;;8.78;100.00;100318.59;5348395;27;20040;-83
2022/12/29 10:51:20;;;;;;;11.25;2.10;;;;;;;8.92;100.00;100301.34;5346638;27;20027;-84
2022/12/29 10:53:57;;;;;;;10.07;2.20;;;;;;;9.07;100.00;100315.84;5326110;27;20083;-83
2022/12/29 10:56:44;;;;;;;9.38;2.25;;;;;;;9.22;100.00;100318.88;5349937;27;20098;-83
2022/12/29 10:59:19;;;;;;;;;;;;;;;9.28;100.00;100320.13;5345889;27;20040;-82
2022/12/29 11:02:08;;;;;;;9.35;2.25;;;;;;;9.04;100.00;100321.44;5337505;27;19946;-83
2022/12/29 11:04:52;;;;;;;17.38;3.08;;;;;;;8.88;100.00;100321.22;5329860;27;20019;-84
2022/12/29 11:07:25;;;;;;;13.05;2.25;;;;;;;8.79;100.00;100330.91;5329738;27;20039;-82
2022/12/29 11:10:19;;;;;;;13.13;2.65;;;;;;;8.81;100.00;100334.25;5338412;27;20015;-84
2022/12/29 11:13:03;;;;;;;14.35;2.67;;;;;;;8.83;100.00;100336.78;5319881;27;20473;-83
2022/12/29 11:15:49;;;;;;;8.70;2.03;;;;;;;8.86;100.00;100344.47;5341484;27;20027;-82
2022/12/29 11:18:27;;;;;;;10.70;2.42;;;;;;;8.97;100.00;100343.47;5347006;27;20047;-83
2022/12/29 11:21:02;;;;;;;13.32;2.50;;;;;;;9.04;100.00;100349.88;5375748;27;20025;-84
2022/12/29 11:23:40;;;;;;;10.48;2.42;;;;;;;9.19;100.00;100329.00;5367654;27;20043;-82
2022/12/29 11:26:29;;;;;;;15.57;2.63;;;;;;;9.30;100.00;100341.28;5364523;27;20034;-83
2022/12/29 11:29:15;;;;;;;12.73;1.90;;;;;;;9.49;100.00;100351.81;5371358;27;20031;-83
2022/12/29 11:31:55;;;;;;;12.40;2.30;;;;;;;9.63;100.00;100350.50;5368672;27;20368;-83
2022/12/29 11:34:35;;;;;;;7.70;1.90;;;;;;;9.66;100.00;100363.53;5359162;27;20047;-84
2022/12/29 11:37:38;;;;;;;10.13;2.20;;;;;;;9.68;100.00;100363.34;5361604;27;20110;-83
2022/12/29 11:40:20;;;;;;;11.50;2.33;;;;;;;9.71;100.00;100357.72;5361574;27;20046;-83
2022/12/29 11:43:02;;;;;;;11.13;2.45;;;;;;;9.67;100.00;100373.19;5367051;27;20039;-84
2022/12/29 11:45:36;;;;;;;11.02;2.55;;;;;;;9.61;100.00;100369.28;5372182;27;20542;-83
2022/12/29 11:48:18;;;;;;;14.00;2.75;;;;;;;9.71;100.00;100381.72;5369419;27;20035;-82
2022/12/29 11:50:55;;;;;;;11.48;2.50;;;;;;;9.71;100.00;100374.56;5379248;27;20024;-83
2022/12/29 11:53:37;;;;;;;10.35;2.55;;;;;;;9.68;100.00;100385.50;5346349;27;20024;-84
2022/12/29 11:56:12;;;;;;;17.92;2.75;;;;;;;9.76;100.00;100376.78;5346797;27;20027;-84
2022/12/29 11:58:43;;;;;;;11.43;2.45;;;;;;;9.79;100.00;100382.63;5349989;27;20099;-84
2022/12/29 12:01:37;;;;;;;12.20;2.42;;;;;;;9.88;100.00;100372.09;5364994;27;20373;-82
2022/12/29 12:04:17;;;;;;;11.95;2.17;;;;;;;9.89;100.00;100371.09;5378025;27;20031;-82
2022/12/29 12:06:55;;;;;;;13.43;2.92;;;;;;;9.94;100.00;100364.34;5374361;27;20027;-81
2022/12/29 12:09:32;;;;;;;11.98;3.05;;;;;;;10.26;100.00;100378.16;5374307;27;20042;-82
2022/12/29 12:12:08;;;;;;;11.82;2.47;;;;;;;10.62;100.00;100360.31;5365853;27;20020;-82
2022/12/29 12:14:56;;;;;;;16.48;2.55;;;;;;;10.49;100.00;100371.41;5370138;27;20031;-84
2022/12/29 12:18:01;;;;;;;14.52;2.92;;;;;;;10.34;100.00;100373.78;5367240;27;20424;-82
2022/12/29 12:20:48;;;;;;;15.43;2.35;;;;;;;10.16;100.00;100376.38;5340108;27;20046;-83
2022/12/29 12:23:30;;;;;;;10.50;2.20;;;;;;;10.06;100.00;100388.94;5347907;27;20095;-83
2022/12/29 12:26:18;;;;;;;8.02;2.30;;;;;;;10.11;100.00;100376.00;5325652;28;20039;-82
2022/12/29 12:28:58;;;;;;;11.80;2.40;;;;;;;10.15;100.00;100372.06;5326962;28;20034;-83
2022/12/29 12:31:35;;;;;;;9.70;2.15;;;;;;;10.34;100.00;100375.59;5330873;28;20024;-84
2022/12/29 12:34:25;;;;;;;10.73;2.78;;;;;;;10.73;100.00;100368.09;5340849;27;20015;-83